createdAt,value
2022-11-19T00:01:10.861Z,8.81
2022-11-19T00:03:38.648Z,9.04
2022-11-19T00:06:13.649Z,8.97
2022-11-19T00:08:40.869Z,9.03
2022-11-19T00:11:10.250Z,9.02
2022-11-19T00:13:38.152Z,9.03
2022-11-19T00:16:14.472Z,9.04
2022-11-19T00:18:41.252Z,9.05
2022-11-19T00:21:10.681Z,9.06
2022-11-19T00:23:37.727Z,9.08
2022-11-19T00:26:10.256Z,9.15
2022-11-19T00:28:37.115Z,9.14
2022-11-19T00:31:08.948Z,9.11
2022-11-19T00:33:36.776Z,9.16
2022-11-19T00:36:04.903Z,9.19
2022-11-19T00:38:31.623Z,9.21
2022-11-19T00:40:58.517Z,9.09
2022-11-19T00:43:43.531Z,9.13
2022-11-19T00:46:10.243Z,9.10
2022-11-19T00:48:38.092Z,9.03
2022-11-19T00:51:05.771Z,9.05
2022-11-19T00:53:32.252Z,9.06
2022-11-19T00:56:10.756Z,9.14
2022-11-19T00:58:38.116Z,9.11
2022-11-19T01:01:05.369Z,9.12
2022-11-19T01:03:31.877Z,9.12
2022-11-19T01:05:58.507Z,9.09
2022-11-19T01:08:24.907Z,9.03
2022-11-19T01:10:51.455Z,9.02
2022-11-19T01:13:36.191Z,9.07
2022-11-19T01:16:17.831Z,9.08
2022-11-19T01:18:46.482Z,9.14
2022-11-19T01:21:13.542Z,9.10
2022-11-19T01:23:41.080Z,9.11
2022-11-19T01:26:08.371Z,9.12
2022-11-19T01:28:34.760Z,9.09
2022-11-19T01:31:07.483Z,9.11
2022-11-19T01:33:36.146Z,9.13
2022-11-19T01:36:06.140Z,9.11
2022-11-19T01:38:33.082Z,9.09
2022-11-19T01:41:00.339Z,9.10
2022-11-19T01:43:48.164Z,9.11
2022-11-19T01:46:17.671Z,9.08
2022-11-19T01:48:58.527Z,9.03
2022-11-19T01:51:30.973Z,9.09
2022-11-19T01:54:01.785Z,9.15
2022-11-19T01:56:29.467Z,9.13
2022-11-19T01:59:02.484Z,9.22
2022-11-19T02:01:30.993Z,9.24
2022-11-19T02:04:00.836Z,9.24
2022-11-19T02:06:31.423Z,9.19
2022-11-19T02:08:57.843Z,9.15
2022-11-19T02:11:53.423Z,9.17
2022-11-19T02:14:54.837Z,9.11
2022-11-19T02:17:21.542Z,9.14
2022-11-19T02:20:22.211Z,9.09
2022-11-19T02:23:26.004Z,9.23
2022-11-19T02:26:10.581Z,9.09
2022-11-19T02:28:56.260Z,8.98
2022-11-19T02:31:39.262Z,9.14
2022-11-19T02:34:17.061Z,9.22
2022-11-19T02:37:02.371Z,9.22
2022-11-19T02:39:39.488Z,9.18
2022-11-19T02:42:17.151Z,9.08
2022-11-19T02:44:59.675Z,9.23
2022-11-19T02:47:40.714Z,9.17
2022-11-19T02:50:34.730Z,9.20
2022-11-19T02:53:03.417Z,9.24
2022-11-19T02:55:29.803Z,9.23
2022-11-19T02:58:03.664Z,9.03
2022-11-19T03:00:56.584Z,9.21
2022-11-19T03:03:41.875Z,9.16
2022-11-19T03:06:15.327Z,9.09
2022-11-19T03:08:43.043Z,9.02
2022-11-19T03:11:19.860Z,9.05
2022-11-19T03:14:17.172Z,9.61
2022-11-19T03:16:56.639Z,9.49
2022-11-19T03:19:40.243Z,9.74
2022-11-19T03:22:21.300Z,9.37
2022-11-19T03:25:02.456Z,9.39
2022-11-19T03:27:38.272Z,9.42
2022-11-19T03:30:05.636Z,9.40
2022-11-19T03:32:36.735Z,8.84
2022-11-19T03:35:10.507Z,8.32
2022-11-19T03:37:40.807Z,8.08
2022-11-19T03:40:09.952Z,7.51
2022-11-19T03:42:39.116Z,7.20
2022-11-19T03:45:28.361Z,6.97
2022-11-19T03:47:56.834Z,7.04
2022-11-19T03:51:03.384Z,6.84
2022-11-19T03:53:29.896Z,6.75
2022-11-19T03:56:09.522Z,6.64
2022-11-19T03:58:41.213Z,6.39
2022-11-19T04:01:08.353Z,6.33
2022-11-19T04:03:34.802Z,6.31
2022-11-19T04:06:01.352Z,6.38
2022-11-19T04:08:27.722Z,6.37
2022-11-19T04:10:54.208Z,6.28
2022-11-19T04:13:20.529Z,6.23
2022-11-19T04:15:46.920Z,6.21
2022-11-19T04:18:13.314Z,6.07
2022-11-19T04:20:39.782Z,6.05
2022-11-19T04:23:06.129Z,6.07
2022-11-19T04:25:32.983Z,5.83
2022-11-19T04:27:59.321Z,5.65
2022-11-19T04:30:25.763Z,5.71
2022-11-19T04:32:52.147Z,5.68
2022-11-19T04:35:21.731Z,5.58
2022-11-19T04:37:49.008Z,5.65
2022-11-19T04:40:15.567Z,5.87
2022-11-19T04:42:41.955Z,5.83
2022-11-19T04:45:09.223Z,5.58
2022-11-19T04:47:35.595Z,5.60
2022-11-19T04:50:01.960Z,5.64
2022-11-19T04:52:28.346Z,5.51
2022-11-19T04:54:54.747Z,5.49
2022-11-19T04:57:21.106Z,5.59
2022-11-19T04:59:47.419Z,5.55
2022-11-19T05:02:13.852Z,5.47
2022-11-19T05:04:40.197Z,5.34
2022-11-19T05:07:06.589Z,5.28
2022-11-19T05:09:32.952Z,5.52
2022-11-19T05:11:59.288Z,5.39
2022-11-19T05:14:30.052Z,5.71
2022-11-19T05:16:56.876Z,5.43
2022-11-19T05:19:23.261Z,5.62
2022-11-19T05:21:49.731Z,5.21
2022-11-19T05:24:16.145Z,5.30
2022-11-19T05:26:42.521Z,5.21
2022-11-19T05:29:08.982Z,5.49
2022-11-19T05:31:35.379Z,5.25
2022-11-19T05:34:01.825Z,5.12
2022-11-19T05:36:28.208Z,4.97
2022-11-19T05:38:54.644Z,4.98
2022-11-19T05:41:21.022Z,5.09
2022-11-19T05:43:47.357Z,4.98
2022-11-19T05:46:13.716Z,5.21
2022-11-19T05:48:40.151Z,5.17
2022-11-19T05:51:06.479Z,5.23
2022-11-19T05:53:32.887Z,5.16
2022-11-19T05:55:59.260Z,5.05
2022-11-19T05:58:25.660Z,4.87
2022-11-19T06:00:56.082Z,4.85
2022-11-19T06:03:22.487Z,4.79
2022-11-19T06:05:48.921Z,4.92
2022-11-19T06:08:15.393Z,4.90
2022-11-19T06:10:41.852Z,4.68
2022-11-19T06:13:08.227Z,4.71
2022-11-19T06:15:34.740Z,4.71
2022-11-19T06:18:01.131Z,4.84
2022-11-19T06:20:27.506Z,4.91
2022-11-19T06:22:53.917Z,5.08
2022-11-19T06:25:20.292Z,5.09
2022-11-19T06:27:46.688Z,5.31
2022-11-19T06:30:14.515Z,5.04
2022-11-19T06:32:40.910Z,4.87
2022-11-19T06:35:07.664Z,4.87
2022-11-19T06:37:34.215Z,4.96
2022-11-19T06:40:00.568Z,4.76
2022-11-19T06:42:36.164Z,4.90
2022-11-19T06:45:04.977Z,4.58
2022-11-19T06:47:32.824Z,4.73
2022-11-19T06:49:59.457Z,4.86
2022-11-19T06:52:25.867Z,4.61
2022-11-19T06:54:52.356Z,4.43
2022-11-19T06:57:18.776Z,4.33
2022-11-19T06:59:45.103Z,4.33
2022-11-19T07:02:12.372Z,4.54
2022-11-19T07:04:39.047Z,4.45
2022-11-19T07:07:05.965Z,4.62
2022-11-19T07:09:32.476Z,4.68
2022-11-19T07:11:58.852Z,4.45
2022-11-19T07:14:25.222Z,4.32
2022-11-19T07:16:51.582Z,4.52
2022-11-19T07:19:18.381Z,4.58
2022-11-19T07:21:45.129Z,4.60
2022-11-19T07:24:11.817Z,4.46
2022-11-19T07:26:38.807Z,4.44
2022-11-19T07:29:06.875Z,4.38
2022-11-19T07:31:34.223Z,4.28
2022-11-19T07:34:00.871Z,4.02
2022-11-19T07:36:27.564Z,4.30
2022-11-19T07:38:53.886Z,4.49
2022-11-19T07:41:39.043Z,4.32
2022-11-19T07:44:05.672Z,4.15
2022-11-19T07:46:32.188Z,4.45
2022-11-19T07:48:58.744Z,4.43
2022-11-19T07:51:25.826Z,4.22
2022-11-19T07:53:52.607Z,4.52
2022-11-19T07:56:20.065Z,4.54
2022-11-19T07:58:46.586Z,4.45
2022-11-19T08:01:19.354Z,4.21
2022-11-19T08:03:50.587Z,4.57
2022-11-19T08:06:22.223Z,4.45
2022-11-19T08:08:48.627Z,4.36
2022-11-19T08:11:16.813Z,4.60
2022-11-19T08:13:43.637Z,4.33
2022-11-19T08:16:35.625Z,4.41
2022-11-19T08:19:10.160Z,4.37
2022-11-19T08:21:40.468Z,4.31
2022-11-19T08:24:07.669Z,4.22
2022-11-19T08:26:34.244Z,4.03
2022-11-19T08:29:00.659Z,4.01
2022-11-19T08:31:27.196Z,4.26
2022-11-19T08:33:53.599Z,4.01
2022-11-19T08:36:20.091Z,4.00
2022-11-19T08:38:46.481Z,4.05
2022-11-19T08:41:31.498Z,3.71
2022-11-19T08:44:00.936Z,3.89
2022-11-19T08:46:27.567Z,3.90
2022-11-19T08:48:54.232Z,3.88
2022-11-19T08:51:20.560Z,3.86
2022-11-19T08:53:46.934Z,4.04
2022-11-19T08:56:17.883Z,4.03
2022-11-19T08:58:45.063Z,3.99
2022-11-19T09:01:13.312Z,3.88
2022-11-19T09:03:39.811Z,3.65
2022-11-19T09:06:06.907Z,3.72
2022-11-19T09:08:33.645Z,3.81
2022-11-19T09:11:00.564Z,3.90
2022-11-19T09:13:27.139Z,3.92
2022-11-19T09:15:53.592Z,4.06
2022-11-19T09:18:19.916Z,4.28
2022-11-19T09:20:46.619Z,3.88
2022-11-19T09:23:13.052Z,3.95
2022-11-19T09:25:39.453Z,3.98
2022-11-19T09:28:05.839Z,4.24
2022-11-19T09:30:32.259Z,4.07
2022-11-19T09:33:00.120Z,4.07
2022-11-19T09:35:26.559Z,4.14
2022-11-19T09:37:56.036Z,4.25
2022-11-19T09:40:23.608Z,3.97
2022-11-19T09:43:15.290Z,4.01
2022-11-19T09:46:20.174Z,3.97
2022-11-19T09:48:50.207Z,3.83
2022-11-19T09:51:21.666Z,3.88
2022-11-19T09:53:58.962Z,3.88
2022-11-19T09:56:46.566Z,4.12
2022-11-19T09:59:40.912Z,3.94
2022-11-19T10:02:17.279Z,3.71
2022-11-19T10:04:45.417Z,3.97
2022-11-19T10:07:41.598Z,4.20
2022-11-19T10:10:38.821Z,3.86
2022-11-19T10:13:33.064Z,3.99
2022-11-19T10:16:08.561Z,4.10
2022-11-19T10:18:37.912Z,4.02
2022-11-19T10:21:33.638Z,3.97
2022-11-19T10:24:02.904Z,3.84
2022-11-19T10:26:40.756Z,3.97
2022-11-19T10:29:15.694Z,4.12
2022-11-19T10:31:50.379Z,4.35
2022-11-19T10:34:19.858Z,4.02
2022-11-19T10:36:55.972Z,4.26
2022-11-19T10:39:35.875Z,4.01
2022-11-19T10:42:41.193Z,3.99
2022-11-19T10:45:17.638Z,4.01
2022-11-19T10:47:53.847Z,4.08
2022-11-19T10:50:25.012Z,4.20
2022-11-19T10:53:12.337Z,4.36
2022-11-19T10:55:43.172Z,4.19
2022-11-19T10:58:12.377Z,3.89
2022-11-19T11:00:41.602Z,4.09
2022-11-19T11:03:42.299Z,4.23
2022-11-19T11:06:10.095Z,4.04
2022-11-19T11:08:51.730Z,4.56
2022-11-19T11:11:50.979Z,4.60
2022-11-19T11:14:42.543Z,4.26
2022-11-19T11:17:19.676Z,4.34
2022-11-19T11:20:04.180Z,4.51
2022-11-19T11:22:31.448Z,4.05
2022-11-19T11:25:04.262Z,4.39
2022-11-19T11:27:35.529Z,4.01
2022-11-19T11:30:06.224Z,4.25
2022-11-19T11:32:33.418Z,4.02
2022-11-19T11:35:05.096Z,4.07
2022-11-19T11:37:33.444Z,4.08
2022-11-19T11:40:00.257Z,3.99
2022-11-19T11:42:29.002Z,3.98
2022-11-19T11:44:59.057Z,4.36
2022-11-19T11:47:37.836Z,4.18
2022-11-19T11:50:14.945Z,4.12
2022-11-19T11:52:48.397Z,4.30
2022-11-19T11:55:24.023Z,4.27
2022-11-19T11:58:24.316Z,4.14
2022-11-19T12:00:54.673Z,4.37
2022-11-19T12:03:22.248Z,4.53
2022-11-19T12:06:15.478Z,4.14
2022-11-19T12:09:22.093Z,4.02
2022-11-19T12:12:16.283Z,4.24
2022-11-19T12:15:16.901Z,4.25
2022-11-19T12:18:05.760Z,4.31
2022-11-19T12:20:47.320Z,4.37
2022-11-19T12:23:49.196Z,4.36
2022-11-19T12:26:29.103Z,4.31
2022-11-19T12:29:03.932Z,4.25
2022-11-19T12:31:45.069Z,4.33
2022-11-19T12:34:23.584Z,4.27
2022-11-19T12:37:21.120Z,4.20
2022-11-19T12:40:09.423Z,4.37
2022-11-19T12:42:56.100Z,4.09
2022-11-19T12:45:51.791Z,4.10
2022-11-19T12:48:47.579Z,4.19
2022-11-19T12:51:22.995Z,3.95
2022-11-19T12:54:25.359Z,3.87
2022-11-19T12:57:18.610Z,4.10
2022-11-19T13:00:11.607Z,4.09
2022-11-19T13:02:50.348Z,4.28
2022-11-19T13:05:20.339Z,4.15
2022-11-19T13:07:55.599Z,4.42
2022-11-19T13:10:30.562Z,4.39
2022-11-19T13:12:59.280Z,4.10
2022-11-19T13:15:45.433Z,4.10
2022-11-19T13:18:16.403Z,4.05
2022-11-19T13:21:05.811Z,3.80
2022-11-19T13:23:41.660Z,4.05
2022-11-19T13:26:15.523Z,3.96
2022-11-19T13:28:54.732Z,3.91
2022-11-19T13:31:41.300Z,3.90
2022-11-19T13:34:21.227Z,4.30
2022-11-19T13:37:04.411Z,4.16
2022-11-19T13:39:41.527Z,4.12
2022-11-19T13:42:28.524Z,4.39
2022-11-19T13:44:55.176Z,4.04
2022-11-19T13:47:21.451Z,4.12
2022-11-19T13:49:56.832Z,4.25
2022-11-19T13:52:44.760Z,4.48
2022-11-19T13:55:29.337Z,4.25
2022-11-19T13:57:57.726Z,4.07
2022-11-19T14:00:27.796Z,4.13
2022-11-19T14:03:10.879Z,4.15
2022-11-19T14:05:55.448Z,4.11
2022-11-19T14:08:45.437Z,4.23
2022-11-19T14:11:46.356Z,4.32
2022-11-19T14:14:40.663Z,4.04
2022-11-19T14:17:33.056Z,3.94
2022-11-19T14:20:18.024Z,3.98
2022-11-19T14:23:14.364Z,4.08
2022-11-19T14:26:08.920Z,4.20
2022-11-19T14:28:41.049Z,4.31
2022-11-19T14:31:08.222Z,4.26
2022-11-19T14:33:55.253Z,4.05
2022-11-19T14:36:39.847Z,3.95
2022-11-19T14:39:15.700Z,4.22
2022-11-19T14:41:45.715Z,4.25
2022-11-19T14:44:32.155Z,4.21
2022-11-19T14:47:28.597Z,4.20
2022-11-19T14:50:00.593Z,4.15
2022-11-19T14:52:38.354Z,4.04
2022-11-19T14:55:17.283Z,4.06
2022-11-19T14:57:52.718Z,3.97
2022-11-19T15:00:18.993Z,3.85
2022-11-19T15:02:51.111Z,3.91
2022-11-19T15:05:19.990Z,3.86
2022-11-19T15:07:55.587Z,3.97
2022-11-19T15:10:29.580Z,4.19
2022-11-19T15:13:25.779Z,4.49
2022-11-19T15:15:58.316Z,4.31
2022-11-19T15:18:24.586Z,3.95
2022-11-19T15:21:15.435Z,4.36
2022-11-19T15:24:10.536Z,4.30
2022-11-19T15:27:04.863Z,4.20
2022-11-19T15:29:46.404Z,4.36
2022-11-19T15:32:57.655Z,4.15
2022-11-19T15:35:33.024Z,4.30
2022-11-19T15:38:18.686Z,4.29
2022-11-19T15:40:49.436Z,4.20
2022-11-19T15:43:21.608Z,4.05
2022-11-19T15:45:54.737Z,4.12
2022-11-19T15:49:03.909Z,4.27
2022-11-19T15:51:38.860Z,4.04
2022-11-19T15:54:12.132Z,3.99
2022-11-19T15:56:40.227Z,4.00
2022-11-19T15:59:08.071Z,4.12
2022-11-19T16:01:35.440Z,4.06
2022-11-19T16:04:08.553Z,3.78
2022-11-19T16:06:36.733Z,4.02
2022-11-19T16:09:07.227Z,4.11
2022-11-19T16:11:56.463Z,4.19
2022-11-19T16:14:46.309Z,4.27
2022-11-19T16:17:36.912Z,4.08
2022-11-19T16:20:10.898Z,4.09
2022-11-19T16:22:53.236Z,3.84
2022-11-19T16:25:24.796Z,3.93
2022-11-19T16:27:55.102Z,3.79
2022-11-19T16:30:25.197Z,3.98
2022-11-19T16:32:52.036Z,4.02
2022-11-19T16:35:27.725Z,3.78
2022-11-19T16:37:55.127Z,3.94
2022-11-19T16:40:22.876Z,3.53
2022-11-19T16:42:59.424Z,3.59
2022-11-19T16:45:31.815Z,3.40
2022-11-19T16:48:00.696Z,3.21
2022-11-19T16:50:27.217Z,3.32
2022-11-19T16:52:54.825Z,3.39
2022-11-19T16:55:24.228Z,3.60
2022-11-19T16:57:54.306Z,3.47
2022-11-19T17:00:28.274Z,3.62
2022-11-19T17:02:54.966Z,3.48
2022-11-19T17:05:28.544Z,3.72
2022-11-19T17:08:19.255Z,3.92
2022-11-19T17:10:45.632Z,3.96
2022-11-19T17:13:30.185Z,4.31
2022-11-19T17:16:16.818Z,4.24
2022-11-19T17:18:44.144Z,4.18
2022-11-19T17:21:27.378Z,4.23
2022-11-19T17:23:53.776Z,4.15
2022-11-19T17:26:27.336Z,4.39
2022-11-19T17:29:17.019Z,4.66
2022-11-19T17:31:47.973Z,4.44
2022-11-19T17:34:30.911Z,4.23
2022-11-19T17:36:57.513Z,4.41
2022-11-19T17:39:25.882Z,4.38
2022-11-19T17:42:13.404Z,4.21
2022-11-19T17:44:40.383Z,4.50
2022-11-19T17:47:24.015Z,4.26
2022-11-19T17:49:51.860Z,4.21
2022-11-19T17:52:25.857Z,4.18
2022-11-19T17:54:55.223Z,4.15
2022-11-19T17:57:21.631Z,4.10
2022-11-19T17:59:48.124Z,4.04
2022-11-19T18:02:16.488Z,4.07
2022-11-19T18:04:44.383Z,4.21
2022-11-19T18:07:11.554Z,4.17
2022-11-19T18:09:38.823Z,4.32
2022-11-19T18:12:06.948Z,4.33
2022-11-19T18:14:33.551Z,4.33
2022-11-19T18:17:00.043Z,4.28
2022-11-19T18:19:31.036Z,4.34
2022-11-19T18:21:57.730Z,4.15
2022-11-19T18:24:24.062Z,4.33
2022-11-19T18:26:50.389Z,4.27
2022-11-19T18:29:16.791Z,4.12
2022-11-19T18:31:46.051Z,4.15
2022-11-19T18:34:21.672Z,4.23
2022-11-19T18:36:48.707Z,4.33
2022-11-19T18:39:15.470Z,4.13
2022-11-19T18:41:42.003Z,3.96
2022-11-19T18:44:31.495Z,4.15
2022-11-19T18:46:58.145Z,4.23
2022-11-19T18:49:24.683Z,4.04
2022-11-19T18:51:52.139Z,4.33
2022-11-19T18:54:18.889Z,4.18
2022-11-19T18:56:45.544Z,4.14
2022-11-19T18:59:13.212Z,4.14
2022-11-19T19:01:40.062Z,4.31
2022-11-19T19:04:07.199Z,4.45
2022-11-19T19:06:33.886Z,4.02
2022-11-19T19:09:00.336Z,3.70
2022-11-19T19:11:45.479Z,3.89
2022-11-19T19:14:11.911Z,4.19
2022-11-19T19:16:38.288Z,4.29
2022-11-19T19:19:04.750Z,4.31
2022-11-19T19:21:31.316Z,4.19
2022-11-19T19:23:57.668Z,4.18
2022-11-19T19:26:24.410Z,4.19
2022-11-19T19:28:52.669Z,4.21
2022-11-19T19:31:20.004Z,4.12
2022-11-19T19:33:46.759Z,4.13
2022-11-19T19:36:14.049Z,4.10
2022-11-19T19:38:41.081Z,4.38
2022-11-19T19:41:14.912Z,4.16
2022-11-19T19:43:41.314Z,4.27
2022-11-19T19:46:15.134Z,4.15
2022-11-19T19:48:42.984Z,4.35
2022-11-19T19:51:09.443Z,4.29
2022-11-19T19:53:37.795Z,4.28
2022-11-19T19:56:05.899Z,4.14
2022-11-19T19:58:32.808Z,4.18
2022-11-19T20:01:30.202Z,3.97
2022-11-19T20:04:01.704Z,4.08
2022-11-19T20:06:28.244Z,3.88
2022-11-19T20:08:55.002Z,3.93
2022-11-19T20:11:24.644Z,3.90
2022-11-19T20:13:52.569Z,3.95
2022-11-19T20:16:22.338Z,3.95
2022-11-19T20:18:50.830Z,4.18
2022-11-19T20:21:28.626Z,4.35
2022-11-19T20:23:55.431Z,4.48
2022-11-19T20:26:30.927Z,4.61
2022-11-19T20:29:05.261Z,4.66
2022-11-19T20:31:33.584Z,4.54
2022-11-19T20:34:02.337Z,4.37
2022-11-19T20:36:30.987Z,4.30
2022-11-19T20:38:57.551Z,4.17
2022-11-19T20:41:43.043Z,4.14
2022-11-19T20:44:21.653Z,4.16
2022-11-19T20:47:00.109Z,4.19
2022-11-19T20:49:28.760Z,4.22
2022-11-19T20:51:55.733Z,4.11
2022-11-19T20:54:23.014Z,4.13
2022-11-19T20:56:51.067Z,4.17
2022-11-19T20:59:17.783Z,4.15
2022-11-19T21:01:44.467Z,4.15
2022-11-19T21:04:11.392Z,3.96
2022-11-19T21:06:38.531Z,4.02
2022-11-19T21:09:05.111Z,3.97
2022-11-19T21:11:33.045Z,3.80
2022-11-19T21:13:59.696Z,3.77
2022-11-19T21:16:28.587Z,3.81
2022-11-19T21:18:55.508Z,4.09
2022-11-19T21:21:24.015Z,4.09
2022-11-19T21:23:51.104Z,4.12
2022-11-19T21:26:27.784Z,4.18
2022-11-19T21:28:56.640Z,4.01
2022-11-19T21:31:38.820Z,3.89
2022-11-19T21:34:06.883Z,3.98
2022-11-19T21:36:33.598Z,3.80
2022-11-19T21:39:00.085Z,3.65
2022-11-19T21:41:26.508Z,3.68
2022-11-19T21:43:52.867Z,3.68
2022-11-19T21:46:19.227Z,3.53
2022-11-19T21:48:45.640Z,3.59
2022-11-19T21:51:12.121Z,3.61
2022-11-19T21:53:38.473Z,3.60
2022-11-19T21:56:05.243Z,3.77
2022-11-19T21:58:31.635Z,3.84
2022-11-19T22:00:59.660Z,3.74
2022-11-19T22:03:31.173Z,3.72
2022-11-19T22:05:59.200Z,3.78
2022-11-19T22:08:27.912Z,3.86
2022-11-19T22:10:54.272Z,3.84
2022-11-19T22:13:20.600Z,3.93
2022-11-19T22:15:46.973Z,3.97
2022-11-19T22:18:13.320Z,3.98
2022-11-19T22:20:41.306Z,4.05
2022-11-19T22:23:07.670Z,4.12
2022-11-19T22:25:34.868Z,4.11
2022-11-19T22:28:01.665Z,4.20
2022-11-19T22:30:28.049Z,4.27
2022-11-19T22:32:54.444Z,4.31
2022-11-19T22:35:20.804Z,4.21
2022-11-19T22:37:47.132Z,4.20
2022-11-19T22:40:14.453Z,4.15
2022-11-19T22:42:40.792Z,4.22
2022-11-19T22:45:07.651Z,4.20
2022-11-19T22:47:35.786Z,4.09
2022-11-19T22:50:02.137Z,3.89
2022-11-19T22:52:28.599Z,3.90
2022-11-19T22:54:55.032Z,3.80
2022-11-19T22:57:21.639Z,3.75
2022-11-19T22:59:48.027Z,3.62
2022-11-19T23:02:14.414Z,3.74
2022-11-19T23:04:40.881Z,3.90
2022-11-19T23:07:07.504Z,3.77
2022-11-19T23:09:33.897Z,3.74
2022-11-19T23:12:18.760Z,3.71
2022-11-19T23:14:45.136Z,3.63
2022-11-19T23:17:11.512Z,3.62
2022-11-19T23:19:37.960Z,3.70
2022-11-19T23:22:04.585Z,3.61
2022-11-19T23:24:31.011Z,3.71
2022-11-19T23:26:57.404Z,3.67
2022-11-19T23:29:23.813Z,3.84
2022-11-19T23:31:50.211Z,3.90
2022-11-19T23:34:16.604Z,4.07
2022-11-19T23:36:42.993Z,4.37
2022-11-19T23:39:15.261Z,3.96
2022-11-19T23:41:42.355Z,3.85
2022-11-19T23:44:08.876Z,3.82
2022-11-19T23:46:35.829Z,3.91
2022-11-19T23:49:03.086Z,3.94
2022-11-19T23:51:32.444Z,3.94
2022-11-19T23:53:59.468Z,3.81
2022-11-19T23:56:28.673Z,3.69
2022-11-19T23:58:55.087Z,3.71
